Blencoe, Iowa
Current Conditions -  °F | °C
As of 4:54 AM on Monday 22 Dec 2014 (Local Time) from KTQE Reporting Station
Light Rain Light Rain  
Wind Chill: 37°   Ceiling: 1000
Heat Index: 44°   Visibility: 5mi
Dew Point: 42°   Wind: 15mph
Humidity: 93%   Direction: 160°SSE
Pressure: 29.53"   Gusts: NA
Location:  41.93°N, 96.08°W
Report Text: KTQE 221054Z AUTO 16013KT 5SM -RA BR OVC010 07/06 A2953 RMK AO2 SLP001 P0001 T00670056
Loading
Personal Weather Stations






























Interactive Weather Map New forecast layout! Learn more

10-Day Weather Forecast

Advertisements
Track Severe Weather on mobile